Time;durP1;ratioP1;P1;durP2;ratioP2;P2;SDS_P1;SDS_P2;PMS_P1;PMS_P2;Temp;Humidity;BMP_temperature;BMP_pressure;BME280_temperature;BME280_humidity;BME280_pressure;Samples;Min_cycle;Max_cycle;Signal;HPM_P1;HPM_P2
2022/10/11 00:01:34;;;;;;;4.85;1.13;;;13.00;99.90;;;;;;5026831;28;20237;-73
2022/10/11 00:03:59;;;;;;;3.10;1.20;;;12.90;99.90;;;;;;5034780;28;20186;-74
2022/10/11 00:06:27;;;;;;;4.57;1.70;;;12.90;99.90;;;;;;5034523;28;20189;-74
2022/10/11 00:08:53;;;;;;;6.53;1.50;;;12.80;99.90;;;;;;5034142;28;20189;-73
2022/10/11 00:11:19;;;;;;;3.67;1.10;;;12.80;99.90;;;;;;5033614;28;20193;-76
2022/10/11 00:13:45;;;;;;;2.78;1.25;;;12.70;99.90;;;;;;5034413;28;20182;-72
2022/10/11 00:16:14;;;;;;;5.80;1.23;;;12.70;99.90;;;;;;5020793;28;20202;-73
2022/10/11 00:18:40;;;;;;;3.22;1.35;;;12.60;99.90;;;;;;5020225;28;20482;-73
2022/10/11 00:21:10;;;;;;;4.22;1.45;;;12.60;99.90;;;;;;5034549;28;20292;-74
2022/10/11 00:23:39;;;;;;;3.13;1.10;;;12.50;99.90;;;;;;5032890;28;20193;-74
2022/10/11 00:26:10;;;;;;;4.50;1.40;;;12.50;99.90;;;;;;5027634;28;20181;-76
2022/10/11 00:28:36;;;;;;;3.45;1.33;;;12.40;99.90;;;;;;5025770;28;20179;-74
2022/10/11 00:31:06;;;;;;;2.53;1.23;;;12.40;99.90;;;;;;5022525;28;20194;-75
2022/10/11 00:33:31;;;;;;;4.85;1.13;;;12.40;99.90;;;;;;5015113;28;20205;-74
2022/10/11 00:35:59;;;;;;;3.70;1.38;;;12.30;99.90;;;;;;5030207;28;20186;-74
2022/10/11 00:38:24;;;;;;;4.70;1.38;;;12.30;99.90;;;;;;5017262;28;20206;-74
2022/10/11 00:40:50;;;;;;;3.58;1.27;;;12.30;99.90;;;;;;5017275;28;20181;-75
2022/10/11 00:43:22;;;;;;;6.28;1.55;;;12.20;99.90;;;;;;5038693;28;20194;-75
2022/10/11 00:46:13;;;;;;;3.08;1.27;;;12.20;99.90;;;;;;5025955;28;20177;-75
2022/10/11 00:49:00;;;;;;;3.22;1.30;;;12.10;99.90;;;;;;5015077;28;20182;-75
2022/10/11 00:51:43;;;;;;;3.55;1.20;;;12.10;99.90;;;;;;5034074;28;20200;-75
2022/10/11 00:54:16;;;;;;;3.63;1.45;;;12.10;99.90;;;;;;5036619;28;20177;-75
2022/10/11 00:56:48;;;;;;;4.03;1.33;;;12.10;99.90;;;;;;5033230;28;20399;-76
2022/10/11 00:59:17;;;;;;;5.90;1.40;;;12.00;99.90;;;;;;5034298;28;20166;-71
2022/10/11 01:01:44;;;;;;;2.30;1.10;;;12.00;99.90;;;;;;5034220;28;20222;-76
2022/10/11 01:04:13;;;;;;;4.47;1.33;;;11.90;99.90;;;;;;5033926;28;20256;-76
2022/10/11 01:06:40;;;;;;;4.63;1.50;;;11.90;99.90;;;;;;5034331;28;20170;-76
2022/10/11 01:09:06;;;;;;;6.30;1.80;;;11.80;99.90;;;;;;5032686;28;20208;-76
2022/10/11 01:11:34;;;;;;;4.53;1.40;;;11.80;99.90;;;;;;5033874;28;20188;-70
2022/10/11 01:14:22;;;;;;;2.83;1.40;;;11.70;99.90;;;;;;5034030;28;20190;-75
2022/10/11 01:17:07;;;;;;;4.73;1.23;;;11.70;99.90;;;;;;5017468;28;20195;-74
2022/10/11 01:19:44;;;;;;;3.53;1.10;;;11.60;99.90;;;;;;5034293;28;20185;-74
2022/10/11 01:22:47;;;;;;;3.93;1.30;;;11.50;99.90;;;;;;5033636;28;20193;-76
2022/10/11 01:25:35;;;;;;;5.13;1.27;;;11.50;99.90;;;;;;5034322;28;20177;-74
2022/10/11 01:28:23;;;;;;;4.77;1.30;;;11.40;99.90;;;;;;5029589;28;20210;-75
2022/10/11 01:30:50;;;;;;;2.67;1.17;;;11.40;99.90;;;;;;5036322;28;20193;-75
2022/10/11 01:33:24;;;;;;;3.97;1.13;;;11.30;99.90;;;;;;5037127;28;20213;-75
2022/10/11 01:36:04;;;;;;;4.57;1.60;;;11.30;99.90;;;;;;5029845;28;20369;-73
2022/10/11 01:38:45;;;;;;;4.10;1.03;;;11.30;99.90;;;;;;5017968;28;20273;-76
2022/10/11 01:41:36;;;;;;;3.37;1.10;;;11.20;99.90;;;;;;5028789;28;20216;-74
2022/10/11 01:44:05;;;;;;;3.57;1.33;;;11.20;99.90;;;;;;5031852;28;20255;-76
2022/10/11 01:46:32;;;;;;;2.90;1.17;;;11.10;99.90;;;;;;5034471;28;20178;-74
2022/10/11 01:49:02;;;;;;;3.57;1.40;;;11.10;99.90;;;;;;5020160;28;20178;-72
2022/10/11 01:51:38;;;;;;;4.87;1.60;;;11.00;99.90;;;;;;5031831;28;20249;-75
2022/10/11 01:54:07;;;;;;;3.40;1.30;;;11.00;99.90;;;;;;5036955;28;20272;-76
2022/10/11 01:56:48;;;;;;;4.23;1.10;;;11.00;99.90;;;;;;5036865;28;20268;-75
2022/10/11 01:59:42;;;;;;;2.60;1.23;;;11.00;99.90;;;;;;5034501;28;20205;-76
2022/10/11 02:02:52;;;;;;;2.90;1.10;;;10.90;99.90;;;;;;5036903;28;20299;-75
2022/10/11 02:05:33;;;;;;;3.17;1.20;;;10.90;99.90;;;;;;4999657;28;20170;-75
2022/10/11 02:08:15;;;;;;;2.50;1.00;;;10.90;99.90;;;;;;5004046;28;20182;-75
2022/10/11 02:10:59;;;;;;;3.20;1.37;;;10.80;99.90;;;;;;5033286;28;20228;-76
2022/10/11 02:13:27;;;;;;;3.07;1.10;;;10.80;99.90;;;;;;5037783;28;20169;-76
2022/10/11 02:15:58;;;;;;;2.73;1.00;;;10.80;99.90;;;;;;5033285;28;20195;-75
2022/10/11 02:18:30;;;;;;;3.80;1.23;;;10.80;99.90;;;;;;5037119;28;20174;-76
2022/10/11 02:20:59;;;;;;;3.73;1.17;;;10.80;99.90;;;;;;5033454;28;20198;-77
2022/10/11 02:23:31;;;;;;;3.00;1.30;;;10.70;99.90;;;;;;5017359;28;20171;-75
2022/10/11 02:26:02;;;;;;;3.10;1.40;;;10.70;99.90;;;;;;5017058;28;20202;-76
2022/10/11 02:28:33;;;;;;;4.27;1.13;;;10.70;99.90;;;;;;5026423;28;20194;-76
2022/10/11 02:31:03;;;;;;;3.63;1.30;;;10.70;99.90;;;;;;5028765;28;20201;-76
2022/10/11 02:34:03;;;;;;;2.77;1.10;;;10.60;99.90;;;;;;5033351;28;20197;-75
2022/10/11 02:36:42;;;;;;;4.00;1.07;;;10.60;99.90;;;;;;5017075;28;20187;-76
2022/10/11 02:39:34;;;;;;;3.80;1.77;;;10.50;99.90;;;;;;5029792;28;20177;-76
2022/10/11 02:42:05;;;;;;;2.07;1.07;;;10.50;99.90;;;;;;5031145;28;20225;-75
2022/10/11 02:44:42;;;;;;;4.43;1.20;;;10.50;99.90;;;;;;5017108;28;20210;-75
2022/10/11 02:47:14;;;;;;;4.70;1.33;;;10.50;99.90;;;;;;5032714;28;20205;-75
2022/10/11 02:49:40;;;;;;;2.30;1.10;;;10.40;99.90;;;;;;5033657;28;20217;-75
2022/10/11 02:52:08;;;;;;;2.80;1.03;;;10.40;99.90;;;;;;5032686;28;20203;-75
2022/10/11 02:54:34;;;;;;;2.87;1.30;;;10.40;99.90;;;;;;5035730;28;20271;-75
2022/10/11 02:57:02;;;;;;;2.83;1.20;;;10.40;99.90;;;;;;5036292;28;20225;-75
2022/10/11 02:59:29;;;;;;;2.60;1.00;;;10.40;99.90;;;;;;5035418;28;20210;-75
2022/10/11 03:01:55;;;;;;;4.97;1.30;;;10.40;99.90;;;;;;5033991;28;20206;-75
2022/10/11 03:04:21;;;;;;;2.87;1.00;;;10.40;99.90;;;;;;5023016;28;20277;-76
2022/10/11 03:06:51;;;;;;;6.33;1.23;;;10.30;99.90;;;;;;5035566;28;20172;-75
2022/10/11 03:09:17;;;;;;;3.27;1.20;;;10.30;99.90;;;;;;5034917;28;20206;-73
2022/10/11 03:11:43;;;;;;;4.00;1.10;;;10.30;99.90;;;;;;5035760;28;20181;-75
2022/10/11 03:14:08;;;;;;;3.77;1.20;;;10.30;99.90;;;;;;5029835;28;20182;-76
2022/10/11 03:16:34;;;;;;;4.07;1.20;;;10.20;99.90;;;;;;5035189;28;20181;-76
2022/10/11 03:19:02;;;;;;;3.27;1.27;;;10.20;99.90;;;;;;5030953;28;20185;-71
2022/10/11 03:21:32;;;;;;;3.37;1.20;;;10.20;99.90;;;;;;5035071;28;20206;-76
2022/10/11 03:24:00;;;;;;;4.37;1.20;;;10.20;99.90;;;;;;5024300;28;20182;-75
2022/10/11 03:26:26;;;;;;;3.33;1.20;;;10.20;99.90;;;;;;5032413;28;20170;-75
2022/10/11 03:28:51;;;;;;;3.10;1.30;;;10.20;99.90;;;;;;5035392;28;20173;-77
2022/10/11 03:31:17;;;;;;;8.07;4.57;;;10.10;99.90;;;;;;5032932;28;20212;-74
2022/10/11 03:33:45;;;;;;;8.37;4.30;;;10.10;99.90;;;;;;5023742;28;20198;-75
2022/10/11 03:36:13;;;;;;;5.27;3.23;;;10.10;99.90;;;;;;5035963;28;20205;-77
2022/10/11 03:38:39;;;;;;;5.20;2.63;;;10.10;99.90;;;;;;5035464;28;20180;-76
2022/10/11 03:41:05;;;;;;;3.97;1.87;;;10.10;99.90;;;;;;5026654;28;20199;-75
2022/10/11 03:43:30;;;;;;;4.17;2.27;;;10.10;99.90;;;;;;5030328;28;20186;-76
2022/10/11 03:45:56;;;;;;;3.70;2.10;;;10.00;99.90;;;;;;5034833;28;20258;-76
2022/10/11 03:48:22;;;;;;;5.13;2.40;;;10.00;99.90;;;;;;5034771;28;20178;-75
2022/10/11 03:50:48;;;;;;;6.83;1.70;;;10.00;99.90;;;;;;5034192;28;20170;-74
2022/10/11 03:53:13;;;;;;;8.13;1.77;;;10.10;99.90;;;;;;5034417;28;20228;-76
2022/10/11 03:55:40;;;;;;;3.40;1.40;;;10.10;99.90;;;;;;5035399;28;20517;-75
2022/10/11 03:58:06;;;;;;;3.77;1.43;;;10.00;99.90;;;;;;5035102;28;20186;-76
2022/10/11 04:00:32;;;;;;;4.03;1.93;;;10.00;99.90;;;;;;5034764;28;20204;-75
2022/10/11 04:02:59;;;;;;;4.03;1.50;;;10.00;99.90;;;;;;5032767;28;20283;-76
2022/10/11 04:05:26;;;;;;;6.13;1.40;;;10.00;99.90;;;;;;5033999;28;20235;-70
2022/10/11 04:07:52;;;;;;;2.50;1.20;;;10.00;99.90;;;;;;5031287;28;20206;-75
2022/10/11 04:10:18;;;;;;;4.27;1.57;;;9.90;99.90;;;;;;5031601;28;20235;-75
2022/10/11 04:12:43;;;;;;;3.53;1.50;;;10.00;99.90;;;;;;5022048;28;20204;-75
2022/10/11 04:15:12;;;;;;;4.97;1.30;;;9.90;99.90;;;;;;5033678;28;20173;-74
2022/10/11 04:17:38;;;;;;;2.27;1.37;;;9.90;99.90;;;;;;5030616;28;20213;-74
2022/10/11 04:20:05;;;;;;;4.60;1.40;;;10.00;99.90;;;;;;5022203;28;20178;-75
2022/10/11 04:22:31;;;;;;;4.77;1.50;;;9.90;99.90;;;;;;5033976;28;20247;-73
2022/10/11 04:24:57;;;;;;;22.60;13.67;;;9.90;99.90;;;;;;5035220;28;20177;-74
2022/10/11 04:27:26;;;;;;;10.97;6.20;;;9.90;99.90;;;;;;5034324;28;20269;-75
2022/10/11 04:29:54;;;;;;;6.50;4.30;;;9.80;99.90;;;;;;5034424;28;20201;-75
2022/10/11 04:32:20;;;;;;;5.73;3.53;;;9.80;99.90;;;;;;5034910;28;20192;-71
2022/10/11 04:34:53;;;;;;;8.47;3.67;;;9.80;99.90;;;;;;5020566;28;20174;-76
2022/10/11 04:37:18;;;;;;;6.27;2.90;;;9.70;99.90;;;;;;5030544;28;20189;-72
2022/10/11 04:39:44;;;;;;;4.43;2.47;;;9.80;99.90;;;;;;5031869;28;20182;-75
2022/10/11 04:42:10;;;;;;;5.87;3.10;;;9.70;99.90;;;;;;5033877;28;20202;-75
2022/10/11 04:44:38;;;;;;;5.47;1.90;;;9.70;99.90;;;;;;5033130;28;20184;-75
2022/10/11 04:47:03;;;;;;;5.53;2.17;;;9.70;99.90;;;;;;5032500;28;20165;-75
2022/10/11 04:49:29;;;;;;;8.57;4.77;;;9.60;99.90;;;;;;5034061;28;20189;-75
2022/10/11 04:51:55;;;;;;;5.63;2.50;;;9.60;99.90;;;;;;5033624;28;20265;-72
2022/10/11 04:54:20;;;;;;;4.57;2.03;;;9.60;99.90;;;;;;5033342;28;20193;-73
2022/10/11 04:56:46;;;;;;;6.50;2.30;;;9.50;99.90;;;;;;5033727;28;20177;-69
2022/10/11 04:59:12;;;;;;;5.17;2.33;;;9.60;99.90;;;;;;5022611;28;20178;-72
2022/10/11 05:01:37;;;;;;;3.63;1.60;;;9.50;99.90;;;;;;5036241;28;20213;-71
2022/10/11 05:04:03;;;;;;;3.50;1.53;;;9.50;99.90;;;;;;5035255;28;20182;-72
2022/10/11 05:06:29;;;;;;;6.40;2.10;;;9.50;99.90;;;;;;5035057;28;20211;-72
2022/10/11 05:08:54;;;;;;;4.33;1.80;;;9.50;99.90;;;;;;5030999;28;20178;-73
2022/10/11 05:11:20;;;;;;;3.00;1.70;;;9.60;99.90;;;;;;5037510;28;20217;-74
2022/10/11 05:13:46;;;;;;;6.07;1.80;;;9.60;99.90;;;;;;5037576;28;20251;-74
2022/10/11 05:16:15;;;;;;;2.83;1.70;;;9.60;99.90;;;;;;5038314;28;20269;-73
2022/10/11 05:18:40;;;;;;;2.67;1.47;;;9.70;99.90;;;;;;5034920;28;20192;-73
2022/10/11 05:21:17;;;;;;;4.63;1.57;;;9.70;99.90;;;;;;5037460;28;20202;-73
2022/10/11 05:23:44;;;;;;;4.43;2.03;;;9.70;99.90;;;;;;5035676;28;20189;-73
2022/10/11 05:26:15;;;;;;;6.17;2.07;;;9.80;99.90;;;;;;5017867;28;20209;-74
2022/10/11 05:28:41;;;;;;;7.47;2.70;;;9.90;99.90;;;;;;5030767;28;20183;-74
2022/10/11 05:31:09;;;;;;;6.43;2.30;;;9.90;99.90;;;;;;5027782;28;20262;-73
2022/10/11 05:33:35;;;;;;;5.53;2.50;;;10.00;99.90;;;;;;5040520;28;20269;-73
2022/10/11 05:36:04;;;;;;;6.57;2.73;;;10.00;99.90;;;;;;5037194;28;20229;-74
2022/10/11 05:38:29;;;;;;;5.83;2.70;;;10.10;99.90;;;;;;5036952;28;20197;-73
2022/10/11 05:40:58;;;;;;;6.73;2.57;;;10.20;99.90;;;;;;5036420;28;20178;-74
2022/10/11 05:43:28;;;;;;;7.23;2.53;;;10.30;99.90;;;;;;5037011;28;20186;-74
2022/10/11 05:45:54;;;;;;;5.30;2.50;;;10.40;99.90;;;;;;5037507;28;20208;-74
2022/10/11 05:48:19;;;;;;;6.83;3.00;;;10.40;99.90;;;;;;5032661;28;20182;-75
2022/10/11 05:50:47;;;;;;;7.43;2.73;;;10.40;99.90;;;;;;5027405;28;20460;-74
2022/10/11 05:53:12;;;;;;;6.17;2.73;;;10.50;99.90;;;;;;5036427;28;20208;-73
2022/10/11 05:55:40;;;;;;;6.13;2.93;;;10.50;99.90;;;;;;5037363;28;20261;-72
2022/10/11 05:58:13;;;;;;;5.20;2.83;;;10.60;99.90;;;;;;5026106;28;20178;-72
2022/10/11 06:00:39;;;;;;;8.53;3.27;;;10.70;99.90;;;;;;5037032;28;20194;-73
2022/10/11 06:03:09;;;;;;;6.27;2.90;;;10.70;99.90;;;;;;5037189;28;20248;-73
2022/10/11 06:05:35;;;;;;;8.27;2.87;;;10.80;99.90;;;;;;5037679;28;20174;-72
2022/10/11 06:08:04;;;;;;;4.90;2.87;;;10.80;99.90;;;;;;5036500;28;20239;-73
2022/10/11 06:10:31;;;;;;;6.90;3.10;;;10.90;99.90;;;;;;5032733;28;20305;-73
2022/10/11 06:12:57;;;;;;;7.67;3.37;;;10.90;99.90;;;;;;5032507;28;20179;-73
2022/10/11 06:15:23;;;;;;;7.60;3.50;;;10.90;99.90;;;;;;5024108;28;20179;-72
2022/10/11 06:17:49;;;;;;;8.40;4.00;;;10.90;99.90;;;;;;5035097;28;20174;-73
2022/10/11 06:20:15;;;;;;;8.80;3.95;;;11.00;99.90;;;;;;5035066;28;20228;-72
2022/10/11 06:22:40;;;;;;;7.37;3.33;;;11.00;99.90;;;;;;5036793;28;20197;-72
2022/10/11 06:25:06;;;;;;;7.63;3.88;;;11.00;99.90;;;;;;5036248;28;20178;-74
2022/10/11 06:27:32;;;;;;;6.80;3.33;;;11.10;99.90;;;;;;5031784;28;20195;-73
2022/10/11 06:29:58;;;;;;;10.10;3.97;;;11.10;99.90;;;;;;5034295;28;20174;-70
2022/10/11 06:32:23;;;;;;;7.53;3.50;;;11.10;99.90;;;;;;5029648;28;20193;-74
2022/10/11 06:34:49;;;;;;;7.93;3.75;;;11.10;99.90;;;;;;5023177;28;20229;-73
2022/10/11 06:37:17;;;;;;;6.80;3.20;;;11.10;99.90;;;;;;5032130;28;20260;-73
2022/10/11 06:39:45;;;;;;;9.20;3.50;;;11.10;99.90;;;;;;5031421;28;20175;-74
2022/10/11 06:42:11;;;;;;;7.47;3.30;;;11.10;99.90;;;;;;5030867;28;20194;-74
2022/10/11 06:44:41;;;;;;;6.95;3.15;;;11.10;99.90;;;;;;5035824;28;20200;-73
2022/10/11 06:47:07;;;;;;;7.45;3.28;;;11.10;99.90;;;;;;5035647;28;20194;-72
2022/10/11 06:49:33;;;;;;;6.43;3.05;;;11.10;99.90;;;;;;5033394;28;20170;-73
2022/10/11 06:52:01;;;;;;;7.68;3.22;;;11.20;99.90;;;;;;5016348;28;20174;-74
2022/10/11 06:54:27;;;;;;;6.67;3.10;;;11.20;99.90;;;;;;5023122;28;20217;-72
2022/10/11 06:56:55;;;;;;;6.90;3.25;;;11.20;99.90;;;;;;5023831;28;20194;-74
2022/10/11 06:59:20;;;;;;;10.07;3.80;;;11.30;99.90;;;;;;5035787;28;20192;-73
2022/10/11 07:01:46;;;;;;;10.82;4.57;;;11.30;99.90;;;;;;5024354;28;20202;-73
2022/10/11 07:04:12;;;;;;;8.15;4.07;;;11.30;99.90;;;;;;5035782;28;20180;-70
2022/10/11 07:06:42;;;;;;;8.65;4.38;;;11.40;99.90;;;;;;5035765;28;20174;-73
2022/10/11 07:09:08;;;;;;;13.55;5.28;;;11.40;99.90;;;;;;5032532;28;20226;-72
2022/10/11 07:11:34;;;;;;;10.27;4.97;;;11.50;99.90;;;;;;5035776;28;20180;-71
2022/10/11 07:14:06;;;;;;;13.85;6.78;;;11.60;99.90;;;;;;5036214;28;20261;-73
2022/10/11 07:16:35;;;;;;;13.80;6.47;;;11.60;99.90;;;;;;5035383;28;20204;-74
2022/10/11 07:19:03;;;;;;;16.85;6.97;;;11.70;99.90;;;;;;5035383;28;20273;-73
2022/10/11 07:21:30;;;;;;;15.20;7.10;;;11.80;99.90;;;;;;5036252;28;20322;-73
2022/10/11 07:23:56;;;;;;;14.27;7.07;;;11.90;99.90;;;;;;5035658;28;20170;-73
2022/10/11 07:26:22;;;;;;;13.85;7.30;;;11.90;99.90;;;;;;5035587;28;20200;-74
2022/10/11 07:28:48;;;;;;;17.45;8.77;;;12.00;99.90;;;;;;5035414;28;20198;-74
2022/10/11 07:31:20;;;;;;;18.10;8.85;;;12.00;99.90;;;;;;5030636;28;20171;-73
2022/10/11 07:33:50;;;;;;;20.17;8.55;;;12.10;99.90;;;;;;5036323;28;20193;-72
2022/10/11 07:36:16;;;;;;;19.63;8.40;;;12.10;99.90;;;;;;5034352;28;20194;-73
2022/10/11 07:38:47;;;;;;;16.67;8.90;;;12.10;99.90;;;;;;5035013;28;20331;-71
2022/10/11 07:41:13;;;;;;;23.80;10.93;;;12.10;99.90;;;;;;5034395;28;20206;-72
2022/10/11 07:43:39;;;;;;;26.40;11.27;;;12.20;99.90;;;;;;5035066;28;20170;-72
2022/10/11 07:46:05;;;;;;;18.20;9.38;;;12.20;99.90;;;;;;5035505;28;20232;-73
2022/10/11 07:48:35;;;;;;;17.58;9.07;;;12.20;99.90;;;;;;5035082;28;20190;-73
2022/10/11 07:51:03;;;;;;;21.85;10.55;;;12.30;99.90;;;;;;5027092;28;20179;-73
2022/10/11 07:53:29;;;;;;;24.10;11.40;;;12.30;99.90;;;;;;5015509;28;20198;-73
2022/10/11 07:55:58;;;;;;;23.95;11.32;;;12.40;99.90;;;;;;5034691;28;20225;-72
2022/10/11 07:58:24;;;;;;;23.17;11.00;;;12.40;99.90;;;;;;5034774;28;20174;-73
2022/10/11 08:00:52;;;;;;;19.38;11.20;;;12.50;99.90;;;;;;5033087;28;20177;-73
2022/10/11 08:03:18;;;;;;;21.83;10.52;;;12.50;99.90;;;;;;5025466;28;20194;-73
2022/10/11 08:05:44;;;;;;;20.08;10.98;;;12.50;99.90;;;;;;5034653;28;20170;-72
2022/10/11 08:08:10;;;;;;;16.88;10.43;;;12.60;99.90;;;;;;5033687;28;20174;-74
2022/10/11 08:10:38;;;;;;;19.83;10.40;;;12.60;99.90;;;;;;5022753;28;20205;-74
2022/10/11 08:13:04;;;;;;;19.55;9.70;;;12.60;99.90;;;;;;5024448;28;20181;-75
2022/10/11 08:15:32;;;;;;;20.65;10.85;;;12.60;99.90;;;;;;5035046;28;20181;-72
2022/10/11 08:17:58;;;;;;;19.60;9.88;;;12.60;99.90;;;;;;5033474;28;20185;-73
2022/10/11 08:20:23;;;;;;;19.02;10.07;;;12.60;99.90;;;;;;5031673;28;20308;-72
2022/10/11 08:22:49;;;;;;;20.23;10.25;;;12.60;99.90;;;;;;5034908;28;20218;-72
2022/10/11 08:25:17;;;;;;;18.63;10.48;;;12.60;99.90;;;;;;5036539;28;20383;-73
2022/10/11 08:27:42;;;;;;;20.55;10.93;;;12.70;99.90;;;;;;5035668;28;20162;-72
2022/10/11 08:30:09;;;;;;;18.48;10.32;;;12.80;99.90;;;;;;5035744;28;20200;-72
2022/10/11 08:32:37;;;;;;;18.95;10.38;;;12.90;99.90;;;;;;5026440;28;20204;-72
2022/10/11 08:35:05;;;;;;;17.75;10.00;;;12.90;99.90;;;;;;5036035;28;20213;-71
2022/10/11 08:37:32;;;;;;;19.52;9.32;;;13.00;99.90;;;;;;5034749;28;20288;-72
2022/10/11 08:39:58;;;;;;;18.33;10.02;;;13.00;99.90;;;;;;5037040;28;20173;-72
2022/10/11 08:42:29;;;;;;;16.45;9.35;;;13.10;99.90;;;;;;5033303;28;20213;-71
2022/10/11 08:45:04;;;;;;;16.38;9.63;;;13.10;99.90;;;;;;5021270;28;20205;-71
2022/10/11 08:47:38;;;;;;;17.17;9.45;;;13.20;99.90;;;;;;5021406;28;20174;-73
2022/10/11 08:50:06;;;;;;;16.27;9.25;;;13.20;99.90;;;;;;5036064;28;20197;-71
2022/10/11 08:52:40;;;;;;;18.38;9.98;;;13.30;99.90;;;;;;5035164;28;20181;-72
2022/10/11 08:55:19;;;;;;;16.92;9.55;;;13.30;99.90;;;;;;5034322;28;20174;-72
2022/10/11 08:57:51;;;;;;;17.85;9.73;;;13.40;99.90;;;;;;5031600;28;20209;-72
2022/10/11 09:00:21;;;;;;;15.45;8.75;;;13.40;99.90;;;;;;5036024;28;20193;-73
2022/10/11 09:03:25;;;;;;;17.92;8.60;;;13.50;99.90;;;;;;5036176;28;20209;-72
2022/10/11 09:05:56;;;;;;;13.52;8.55;;;13.60;99.90;;;;;;5030387;28;20325;-72
2022/10/11 09:08:33;;;;;;;16.15;7.88;;;13.70;99.90;;;;;;5018980;28;20261;-72
2022/10/11 09:11:04;;;;;;;17.75;9.57;;;13.90;99.90;;;;;;5017910;28;20194;-72
2022/10/11 09:13:58;;;;;;;13.10;7.68;;;14.00;99.90;;;;;;5018803;28;20183;-72
2022/10/11 09:16:45;;;;;;;11.93;7.20;;;14.10;99.90;;;;;;5016494;28;20181;-72
2022/10/11 09:19:38;;;;;;;15.68;7.57;;;14.10;99.90;;;;;;5031088;28;20185;-73
2022/10/11 09:22:03;;;;;;;14.63;7.40;;;14.10;99.90;;;;;;5022698;28;20316;-73
2022/10/11 09:24:47;;;;;;;12.48;6.65;;;14.10;99.90;;;;;;5035548;28;20217;-71
2022/10/11 09:27:25;;;;;;;15.90;7.47;;;14.10;99.90;;;;;;5035212;28;20166;-71
2022/10/11 09:30:04;;;;;;;15.27;7.75;;;14.10;99.90;;;;;;5035600;28;20166;-71
2022/10/11 09:32:36;;;;;;;14.57;7.80;;;14.10;99.90;;;;;;5032921;28;20198;-72
2022/10/11 09:35:13;;;;;;;15.73;8.25;;;14.10;99.90;;;;;;5055472;28;20177;-73
2022/10/11 09:37:46;;;;;;;13.98;7.43;;;14.10;99.90;;;;;;5029920;28;20288;-70
2022/10/11 09:40:47;;;;;;;15.23;7.88;;;14.10;99.90;;;;;;5029427;28;20183;-72
2022/10/11 09:43:17;;;;;;;12.45;6.40;;;14.30;99.90;;;;;;5024684;28;20198;-72
2022/10/11 09:45:48;;;;;;;18.38;7.53;;;14.70;99.90;;;;;;5034019;28;20281;-72
2022/10/11 09:48:18;;;;;;;13.77;6.75;;;15.30;99.90;;;;;;5033291;28;20166;-73
2022/10/11 09:50:45;;;;;;;12.30;6.97;;;15.70;99.90;;;;;;5019551;28;20225;-73
2022/10/11 09:53:13;;;;;;;12.52;6.65;;;15.80;99.90;;;;;;5026195;28;20205;-73
2022/10/11 09:55:38;;;;;;;18.48;7.82;;;15.80;99.90;;;;;;5038329;28;20194;-69
2022/10/11 09:58:23;;;;;;;12.18;6.53;;;15.80;99.90;;;;;;5034292;28;20537;-71
2022/10/11 10:01:03;;;;;;;13.32;7.20;;;15.60;99.90;;;;;;5025226;28;20756;-72
2022/10/11 10:03:34;;;;;;;11.27;6.30;;;15.60;99.90;;;;;;5039775;28;20197;-72
2022/10/11 10:06:14;;;;;;;20.10;6.85;;;15.60;99.90;;;;;;5025531;28;20202;-71
2022/10/11 10:08:41;;;;;;;12.73;6.47;;;15.70;99.90;;;;;;5028727;28;20250;-72
2022/10/11 10:11:09;;;;;;;13.23;6.63;;;15.90;99.90;;;;;;5037383;28;20261;-73
2022/10/11 10:13:50;;;;;;;12.52;6.38;;;16.20;99.90;;;;;;5040321;28;20353;-72
2022/10/11 10:16:27;;;;;;;12.32;6.30;;;16.40;99.90;;;;;;5036729;28;20193;-72
2022/10/11 10:18:55;;;;;;;9.57;5.82;;;16.90;99.90;;;;;;5037947;28;20205;-73
2022/10/11 10:21:27;;;;;;;11.65;5.85;;;17.20;99.90;;;;;;5040878;28;20280;-73
2022/10/11 10:23:54;;;;;;;13.13;6.82;;;17.40;99.90;;;;;;5037114;28;20273;-73
2022/10/11 10:26:22;;;;;;;11.13;5.85;;;17.30;99.90;;;;;;5037382;28;20193;-73
2022/10/11 10:28:56;;;;;;;13.95;7.45;;;17.20;99.90;;;;;;5036780;28;20178;-74
2022/10/11 10:31:48;;;;;;;12.55;6.65;;;17.10;99.90;;;;;;5036750;28;20200;-74
2022/10/11 10:34:34;;;;;;;12.60;6.45;;;16.90;99.90;;;;;;5037802;28;20197;-73
2022/10/11 10:37:03;;;;;;;11.13;6.07;;;16.70;99.90;;;;;;5036042;28;20204;-73
2022/10/11 10:39:40;;;;;;;11.77;6.63;;;16.50;99.90;;;;;;5018346;28;20198;-73
2022/10/11 10:42:17;;;;;;;12.23;6.22;;;16.30;99.90;;;;;;5044128;28;20214;-72
2022/10/11 10:44:44;;;;;;;8.90;5.32;;;16.20;99.90;;;;;;5042161;28;20176;-71
2022/10/11 10:47:22;;;;;;;11.68;6.10;;;16.10;99.90;;;;;;5035860;28;20268;-73
2022/10/11 10:50:05;;;;;;;9.13;5.13;;;16.00;99.90;;;;;;5017601;28;20167;-72
2022/10/11 10:52:42;;;;;;;10.48;5.53;;;15.90;99.90;;;;;;5017178;28;20183;-72
2022/10/11 10:55:22;;;;;;;10.98;6.00;;;16.00;99.90;;;;;;5022268;28;20174;-73
2022/10/11 10:57:56;;;;;;;11.85;5.88;;;16.30;99.90;;;;;;5036837;28;20256;-73
2022/10/11 11:00:25;;;;;;;8.95;5.45;;;16.60;99.90;;;;;;5037481;28;20200;-73
2022/10/11 11:03:00;;;;;;;8.68;5.20;;;17.10;99.90;;;;;;5038853;28;20277;-73
2022/10/11 11:06:02;;;;;;;10.15;5.07;;;17.50;99.90;;;;;;5028866;28;20326;-74
2022/10/11 11:08:49;;;;;;;11.32;6.05;;;18.00;99.90;;;;;;5023855;28;20173;-74
2022/10/11 11:11:38;;;;;;;10.00;5.32;;;18.30;99.90;;;;;;5036734;28;20181;-73
2022/10/11 11:14:18;;;;;;;9.60;4.65;;;18.70;99.90;;;;;;5036126;28;20201;-72
2022/10/11 11:16:49;;;;;;;8.30;5.20;;;19.00;99.90;;;;;;5037607;28;20182;-74
2022/10/11 11:19:36;;;;;;;9.60;4.65;;;19.20;99.90;;;;;;5025982;28;20191;-72
2022/10/11 11:22:13;;;;;;;9.77;5.13;;;19.10;99.90;;;;;;5032763;28;20202;-74
2022/10/11 11:24:41;;;;;;;8.57;5.00;;;19.00;99.90;;;;;;5035745;28;20212;-73
2022/10/11 11:27:32;;;;;;;11.20;5.45;;;19.00;99.90;;;;;;5051026;28;20230;-73
2022/10/11 11:30:07;;;;;;;11.15;5.43;;;19.10;99.90;;;;;;5037725;28;20177;-74
2022/10/11 11:32:33;;;;;;;13.57;5.82;;;19.20;99.90;;;;;;5037433;28;20182;-73
2022/10/11 11:35:09;;;;;;;11.35;6.10;;;19.40;99.90;;;;;;5059136;28;20299;-74
2022/10/11 11:37:40;;;;;;;11.32;5.05;;;19.50;99.90;;;;;;5037444;28;20232;-73
2022/10/11 11:40:36;;;;;;;10.63;4.97;;;19.70;99.90;;;;;;5036699;28;20209;-73
2022/10/11 11:43:17;;;;;;;9.30;4.97;;;19.70;99.90;;;;;;5034371;28;20240;-73
2022/10/11 11:45:47;;;;;;;8.55;4.60;;;19.70;99.90;;;;;;5036898;28;20189;-73
2022/10/11 11:48:18;;;;;;;13.15;4.80;;;19.70;99.90;;;;;;5024785;28;20322;-73
2022/10/11 11:51:01;;;;;;;13.27;4.50;;;19.60;99.90;;;;;;5029719;28;20186;-73
2022/10/11 11:53:49;;;;;;;8.60;4.15;;;19.60;99.90;;;;;;5019143;28;20206;-71
2022/10/11 11:56:25;;;;;;;8.18;4.25;;;19.70;99.90;;;;;;4988579;28;20190;-71
2022/10/11 11:59:01;;;;;;;8.52;4.57;;;19.70;99.90;;;;;;5032103;28;20197;-72
2022/10/11 12:01:54;;;;;;;11.05;4.95;;;19.70;99.90;;;;;;5039191;28;20236;-72
2022/10/11 12:04:28;;;;;;;10.32;4.25;;;19.80;99.90;;;;;;5037923;28;20181;-73
2022/10/11 12:07:03;;;;;;;7.55;3.80;;;19.90;99.90;;;;;;5032170;28;20163;-72
2022/10/11 12:09:29;;;;;;;6.78;3.28;;;20.00;99.90;;;;;;5040395;28;20209;-73
2022/10/11 12:11:59;;;;;;;9.48;3.20;;;19.90;99.90;;;;;;5036891;28;20178;-72
2022/10/11 12:14:34;;;;;;;6.38;2.90;;;19.80;99.90;;;;;;5032913;28;20188;-73
2022/10/11 12:17:17;;;;;;;5.90;2.92;;;19.70;99.90;;;;;;5031147;28;20181;-72
2022/10/11 12:19:58;;;;;;;6.70;2.90;;;19.70;99.90;;;;;;5036593;28;20186;-70
2022/10/11 12:22:26;;;;;;;5.65;2.58;;;19.70;99.90;;;;;;5029828;28;20219;-71
2022/10/11 12:25:08;;;;;;;4.65;2.03;;;19.70;99.90;;;;;;5037827;28;20241;-73
2022/10/11 12:27:39;;;;;;;4.13;2.10;;;19.80;99.90;;;;;;5041781;28;20181;-70
2022/10/11 12:30:43;;;;;;;6.03;2.20;;;19.90;99.90;;;;;;5039459;28;20180;-73
2022/10/11 12:33:12;;;;;;;4.72;1.85;;;19.90;99.90;;;;;;5037756;28;20181;-73
2022/10/11 12:35:46;;;;;;;4.07;1.70;;;19.80;99.90;;;;;;5037261;28;20256;-71
2022/10/11 12:38:21;;;;;;;6.35;2.30;;;19.60;99.90;;;;;;5035352;28;20200;-73
2022/10/11 12:40:53;;;;;;;4.88;1.42;;;19.50;99.90;;;;;;5033169;28;20546;-72
2022/10/11 12:43:18;;;;;;;3.42;1.50;;;19.40;99.90;;;;;;5035607;28;20217;-73
2022/10/11 12:45:46;;;;;;;3.22;1.65;;;19.40;99.90;;;;;;5038063;28;20184;-71
2022/10/11 12:48:33;;;;;;;3.50;1.40;;;19.50;99.90;;;;;;5038069;28;20201;-72
2022/10/11 12:51:09;;;;;;;4.65;1.77;;;19.60;99.90;;;;;;5036366;28;20170;-73
2022/10/11 12:54:02;;;;;;;5.07;2.17;;;19.80;99.90;;;;;;5036255;28;20201;-72
2022/10/11 12:56:54;;;;;;;6.07;2.10;;;19.90;99.90;;;;;;5032351;28;20288;-68
2022/10/11 12:59:22;;;;;;;3.35;1.58;;;20.10;99.90;;;;;;5037325;28;20177;-71
2022/10/11 13:01:53;;;;;;;5.18;2.03;;;20.20;99.90;;;;;;5034951;28;20206;-73
2022/10/11 13:04:30;;;;;;;2.63;1.63;;;20.40;99.90;;;;;;5035605;28;20170;-73
2022/10/11 13:07:14;;;;;;;4.22;1.75;;;20.50;99.90;;;;;;5017103;28;20262;-73